createdAt,value
2019-01-03T00:00:08.421Z,51.09
2019-01-03T00:01:08.410Z,51.12
2019-01-03T00:02:08.407Z,51.41
2019-01-03T00:03:08.397Z,51.12
2019-01-03T00:04:08.382Z,51.19
2019-01-03T00:05:08.375Z,51.09
2019-01-03T00:06:08.359Z,50.99
2019-01-03T00:07:08.349Z,51.19
2019-01-03T00:08:08.341Z,51.02
2019-01-03T00:09:08.336Z,51.21
2019-01-03T00:10:08.314Z,51.38
2019-01-03T00:11:08.309Z,51.19
2019-01-03T00:12:08.294Z,50.81
2019-01-03T00:13:08.292Z,50.83
2019-01-03T00:14:08.275Z,51.38
2019-01-03T00:15:08.267Z,51.41
2019-01-03T00:16:08.249Z,51.29
2019-01-03T00:17:08.251Z,50.90
2019-01-03T00:18:08.234Z,51.38
2019-01-03T00:19:08.222Z,51.38
2019-01-03T00:20:08.219Z,50.99
2019-01-03T00:21:08.206Z,51.48
2019-01-03T00:22:08.198Z,51.48
2019-01-03T00:23:08.202Z,51.38
2019-01-03T00:24:08.172Z,50.71
2019-01-03T00:25:08.162Z,51.38
2019-01-03T00:26:08.154Z,50.81
2019-01-03T00:27:08.142Z,51.38
2019-01-03T00:28:08.193Z,51.31
2019-01-03T00:29:08.118Z,51.38
2019-01-03T00:30:08.109Z,51.09
2019-01-03T00:31:08.107Z,51.38
2019-01-03T00:32:08.092Z,51.48
2019-01-03T00:33:08.078Z,51.19
2019-01-03T00:34:08.070Z,50.99
2019-01-03T00:35:08.070Z,50.71
2019-01-03T00:36:08.052Z,51.21
2019-01-03T00:37:08.040Z,51.02
2019-01-03T00:38:08.029Z,50.99
2019-01-03T00:39:08.020Z,51.09
2019-01-03T00:40:08.010Z,51.09
2019-01-03T00:41:07.998Z,50.99
2019-01-03T00:42:07.990Z,51.29
2019-01-03T00:43:07.976Z,51.09
2019-01-03T00:44:07.967Z,50.99
2019-01-03T00:45:07.960Z,50.99
2019-01-03T00:46:07.947Z,50.99
2019-01-03T00:47:07.937Z,51.29
2019-01-03T00:48:07.921Z,51.29
2019-01-03T00:49:07.911Z,51.19
2019-01-03T00:50:07.905Z,51.19
2019-01-03T00:51:07.892Z,51.12
2019-01-03T00:52:07.883Z,51.29
2019-01-03T00:53:07.876Z,50.90
2019-01-03T00:54:07.863Z,51.29
2019-01-03T00:55:07.851Z,51.29
2019-01-03T00:56:07.840Z,51.29
2019-01-03T00:57:07.834Z,51.29
2019-01-03T00:58:07.826Z,51.19
2019-01-03T00:59:07.807Z,51.29
2019-01-03T01:00:07.805Z,51.19
2019-01-03T01:01:07.829Z,51.57
2019-01-03T01:02:07.779Z,50.90
2019-01-03T01:03:07.763Z,51.19
2019-01-03T01:04:07.758Z,51.19
2019-01-03T01:05:07.751Z,51.19
2019-01-03T01:06:07.744Z,51.19
2019-01-03T01:07:07.727Z,51.19
2019-01-03T01:08:07.718Z,51.29
2019-01-03T01:09:07.704Z,50.90
2019-01-03T01:10:07.695Z,51.19
2019-01-03T01:11:07.686Z,51.19
2019-01-03T01:12:07.677Z,51.29
2019-01-03T01:13:07.664Z,51.19
2019-01-03T01:14:07.653Z,51.29
2019-01-03T01:15:07.639Z,51.48
2019-01-03T01:16:07.634Z,51.38
2019-01-03T01:17:07.620Z,51.09
2019-01-03T01:18:07.608Z,51.38
2019-01-03T01:19:07.610Z,51.38
2019-01-03T01:20:07.595Z,51.29
2019-01-03T01:21:07.574Z,51.19
2019-01-03T01:22:07.572Z,51.09
2019-01-03T01:23:07.560Z,51.29
2019-01-03T01:24:07.554Z,51.29
2019-01-03T01:25:07.542Z,51.29
2019-01-03T01:26:07.530Z,51.29
2019-01-03T01:27:07.516Z,51.29
2019-01-03T01:28:07.515Z,51.29
2019-01-03T01:29:07.498Z,51.38
2019-01-03T01:30:07.489Z,51.38
2019-01-03T01:31:07.478Z,51.57
2019-01-03T01:32:07.465Z,51.19
2019-01-03T01:33:07.457Z,51.29
2019-01-03T01:34:07.447Z,51.48
2019-01-03T01:35:07.440Z,51.19
2019-01-03T01:36:07.433Z,51.29
2019-01-03T01:37:07.414Z,51.57
2019-01-03T01:38:07.406Z,51.48
2019-01-03T01:39:07.401Z,50.81
2019-01-03T01:40:07.384Z,51.48
2019-01-03T01:41:07.373Z,50.81
2019-01-03T01:42:07.362Z,51.48
2019-01-03T01:43:07.357Z,50.90
2019-01-03T01:44:07.340Z,50.90
2019-01-03T01:45:07.327Z,50.81
2019-01-03T01:46:07.321Z,50.99
2019-01-03T01:47:07.318Z,50.99
2019-01-03T01:48:07.313Z,51.09
2019-01-03T01:49:07.292Z,50.90
2019-01-03T01:50:07.281Z,50.90
2019-01-03T01:51:07.278Z,50.90
2019-01-03T01:52:07.259Z,50.81
2019-01-03T01:53:07.250Z,50.81
2019-01-03T01:54:07.237Z,50.81
2019-01-03T01:55:07.234Z,50.81
2019-01-03T01:56:07.218Z,50.81
2019-01-03T01:57:07.214Z,50.90
2019-01-03T01:58:07.198Z,50.90
2019-01-03T01:59:07.188Z,50.81
2019-01-03T02:00:07.179Z,50.81
2019-01-03T02:01:07.166Z,50.81
2019-01-03T02:02:07.154Z,50.81
2019-01-03T02:03:07.148Z,50.81
2019-01-03T02:04:07.135Z,50.81
2019-01-03T02:05:07.124Z,50.71
2019-01-03T02:06:07.115Z,50.61
2019-01-03T02:07:07.101Z,50.71
2019-01-03T02:08:07.091Z,50.51
2019-01-03T02:09:07.082Z,50.71
2019-01-03T02:10:07.074Z,50.61
2019-01-03T02:11:07.066Z,50.71
2019-01-03T02:12:07.055Z,50.61
2019-01-03T02:13:07.039Z,50.51
2019-01-03T02:14:07.029Z,50.51
2019-01-03T02:15:07.015Z,50.61
2019-01-03T02:16:07.018Z,50.71
2019-01-03T02:17:07.000Z,50.61
2019-01-03T02:18:06.988Z,50.71
2019-01-03T02:19:06.980Z,50.61
2019-01-03T02:20:06.970Z,50.81
2019-01-03T02:21:06.957Z,50.81
2019-01-03T02:22:06.946Z,50.81
2019-01-03T02:23:06.941Z,50.71
2019-01-03T02:24:06.924Z,50.81
2019-01-03T02:25:06.914Z,50.61
2019-01-03T02:26:06.904Z,50.81
2019-01-03T02:27:06.894Z,50.71
2019-01-03T02:28:06.882Z,50.81
2019-01-03T02:29:06.874Z,50.71
2019-01-03T02:30:06.867Z,50.81
2019-01-03T02:31:06.864Z,50.81
2019-01-03T02:32:06.849Z,50.81
2019-01-03T02:33:06.829Z,50.81
2019-01-03T02:34:06.823Z,50.90
2019-01-03T02:35:06.811Z,50.81
2019-01-03T02:36:06.800Z,50.81
2019-01-03T02:37:06.788Z,50.81
2019-01-03T02:38:06.781Z,50.81
2019-01-03T02:39:06.768Z,50.71
2019-01-03T02:40:06.759Z,50.81
2019-01-03T02:41:06.747Z,50.81
2019-01-03T02:42:06.733Z,50.61
2019-01-03T02:43:06.726Z,50.81
2019-01-03T02:44:06.726Z,50.61
2019-01-03T02:45:06.710Z,50.61
2019-01-03T02:46:06.698Z,50.71
2019-01-03T02:47:06.681Z,50.81
2019-01-03T02:48:06.678Z,50.61
2019-01-03T02:49:06.664Z,50.81
2019-01-03T02:50:06.655Z,50.71
2019-01-03T02:51:06.642Z,50.61
2019-01-03T02:52:06.633Z,50.81
2019-01-03T02:53:06.630Z,50.61
2019-01-03T02:54:06.609Z,50.71
2019-01-03T02:55:06.603Z,50.61
2019-01-03T02:56:06.594Z,50.61
2019-01-03T02:57:06.580Z,50.90
2019-01-03T02:58:06.574Z,50.81
2019-01-03T02:59:06.565Z,50.42
2019-01-03T03:00:06.543Z,50.42
2019-01-03T03:01:06.534Z,50.61
2019-01-03T03:02:06.529Z,50.61
2019-01-03T03:03:06.521Z,50.42
2019-01-03T03:04:06.507Z,50.71
2019-01-03T03:05:06.497Z,50.81
2019-01-03T03:06:06.487Z,50.90
2019-01-03T03:07:06.476Z,50.71
2019-01-03T03:08:06.466Z,50.23
2019-01-03T03:09:06.456Z,50.32
2019-01-03T03:10:06.442Z,50.32
2019-01-03T03:11:06.437Z,50.61
2019-01-03T03:12:06.433Z,50.61
2019-01-03T03:13:06.412Z,50.61
2019-01-03T03:14:06.404Z,50.23
2019-01-03T03:15:06.394Z,50.51
2019-01-03T03:16:06.385Z,50.42
2019-01-03T03:17:06.376Z,50.61
2019-01-03T03:18:06.359Z,50.71
2019-01-03T03:19:06.348Z,50.81
2019-01-03T03:20:06.340Z,50.71
2019-01-03T03:21:06.333Z,50.71
2019-01-03T03:22:06.316Z,50.71
2019-01-03T03:23:06.308Z,50.42
2019-01-03T03:24:06.297Z,50.42
2019-01-03T03:25:06.288Z,50.42
2019-01-03T03:26:06.278Z,50.51
2019-01-03T03:27:06.270Z,50.42
2019-01-03T03:28:06.259Z,50.42
2019-01-03T03:29:06.246Z,50.51
2019-01-03T03:30:06.235Z,50.51
2019-01-03T03:31:06.235Z,50.51
2019-01-03T03:32:06.220Z,50.51
2019-01-03T03:33:06.205Z,50.71
2019-01-03T03:34:06.199Z,50.81
2019-01-03T03:35:06.181Z,50.71
2019-01-03T03:36:06.169Z,50.71
2019-01-03T03:37:06.165Z,50.42
2019-01-03T03:38:06.147Z,50.81
2019-01-03T03:39:06.140Z,50.71
2019-01-03T03:40:06.133Z,50.61
2019-01-03T03:41:06.120Z,50.71
2019-01-03T03:42:06.108Z,50.71
2019-01-03T03:43:06.121Z,50.42
2019-01-03T03:44:06.089Z,50.61
2019-01-03T03:45:06.082Z,50.81
2019-01-03T03:46:06.067Z,50.32
2019-01-03T03:47:06.059Z,50.61
2019-01-03T03:48:06.046Z,50.61
2019-01-03T03:49:06.033Z,50.71
2019-01-03T03:50:06.026Z,50.61
2019-01-03T03:51:06.017Z,50.32
2019-01-03T03:52:06.004Z,50.42
2019-01-03T03:53:05.994Z,50.23
2019-01-03T03:54:05.988Z,50.13
2019-01-03T03:55:05.976Z,50.23
2019-01-03T03:56:05.966Z,50.32
2019-01-03T03:57:05.945Z,50.32
2019-01-03T03:58:05.942Z,50.42
2019-01-03T03:59:05.942Z,50.32
2019-01-03T04:00:05.920Z,50.23
2019-01-03T04:01:05.917Z,50.13
2019-01-03T04:02:05.905Z,50.13
2019-01-03T04:03:05.890Z,50.13
2019-01-03T04:04:05.880Z,50.13
2019-01-03T04:05:05.865Z,50.32
2019-01-03T04:06:05.859Z,50.32
2019-01-03T04:07:05.861Z,50.25
2019-01-03T04:08:05.837Z,50.51
2019-01-03T04:09:05.827Z,50.13
2019-01-03T04:10:05.815Z,50.35
2019-01-03T04:11:05.808Z,50.23
2019-01-03T04:12:05.797Z,50.32
2019-01-03T04:13:05.787Z,50.13
2019-01-03T04:14:05.782Z,50.63
2019-01-03T04:15:05.767Z,50.61
2019-01-03T04:16:05.751Z,50.61
2019-01-03T04:17:05.739Z,50.61
2019-01-03T04:18:05.743Z,50.61
2019-01-03T04:19:05.724Z,50.45
2019-01-03T04:20:05.714Z,50.61
2019-01-03T04:21:05.699Z,50.61
2019-01-03T04:22:05.691Z,50.61
2019-01-03T04:23:05.678Z,50.42
2019-01-03T04:24:05.672Z,50.63
2019-01-03T04:25:05.659Z,50.32
2019-01-03T04:26:05.646Z,50.23
2019-01-03T04:27:05.640Z,50.23
2019-01-03T04:28:05.626Z,50.32
2019-01-03T04:29:05.618Z,50.13
2019-01-03T04:30:05.608Z,50.23
2019-01-03T04:31:05.599Z,50.23
2019-01-03T04:32:05.591Z,50.32
2019-01-03T04:33:05.575Z,50.23
2019-01-03T04:34:05.565Z,50.13
2019-01-03T04:35:05.553Z,50.13
2019-01-03T04:36:05.544Z,50.23
2019-01-03T04:37:05.529Z,50.23
2019-01-03T04:38:05.522Z,50.32
2019-01-03T04:39:05.515Z,50.13
2019-01-03T04:40:05.503Z,50.13
2019-01-03T04:41:05.493Z,50.42
2019-01-03T04:42:05.483Z,50.23
2019-01-03T04:43:05.469Z,50.13
2019-01-03T04:44:05.463Z,50.13
2019-01-03T04:45:05.448Z,50.13
2019-01-03T04:46:05.448Z,50.13
2019-01-03T04:47:05.429Z,50.13
2019-01-03T04:48:05.416Z,50.32
2019-01-03T04:49:05.414Z,50.13
2019-01-03T04:50:05.399Z,50.13
2019-01-03T04:51:05.389Z,50.04
2019-01-03T04:52:05.368Z,50.04
2019-01-03T04:53:05.367Z,50.42
2019-01-03T04:54:05.353Z,50.42
2019-01-03T04:55:05.345Z,50.32
2019-01-03T04:56:05.333Z,50.42
2019-01-03T04:57:05.319Z,50.32
2019-01-03T04:58:05.316Z,50.23
2019-01-03T04:59:05.308Z,50.23
2019-01-03T05:00:05.294Z,50.13
2019-01-03T05:01:05.286Z,50.23
2019-01-03T05:02:05.271Z,50.42
2019-01-03T05:03:05.259Z,50.13
2019-01-03T05:04:05.250Z,50.32
2019-01-03T05:05:05.251Z,50.32
2019-01-03T05:06:05.228Z,50.32
2019-01-03T05:07:05.221Z,50.23
2019-01-03T05:08:05.217Z,50.32
2019-01-03T05:09:05.198Z,50.23
2019-01-03T05:10:05.190Z,50.04
2019-01-03T05:11:05.176Z,49.53
2019-01-03T05:12:05.163Z,49.51
2019-01-03T05:13:05.160Z,49.77
2019-01-03T05:14:05.151Z,49.65
2019-01-03T05:15:05.152Z,50.39
2019-01-03T05:16:05.132Z,50.29
2019-01-03T05:17:05.121Z,50.01
2019-01-03T05:18:05.104Z,49.62
2019-01-03T05:19:05.096Z,49.43
2019-01-03T05:20:05.080Z,49.33
2019-01-03T05:21:05.081Z,48.85
2019-01-03T05:22:05.055Z,48.69
2019-01-03T05:23:05.054Z,48.59
2019-01-03T05:24:05.036Z,48.21
2019-01-03T05:25:05.032Z,48.21
2019-01-03T05:26:05.016Z,48.21
2019-01-03T05:27:05.008Z,48.04
2019-01-03T05:28:04.994Z,48.13
2019-01-03T05:29:04.980Z,48.04
2019-01-03T05:30:04.967Z,48.04
2019-01-03T05:31:04.961Z,47.66
2019-01-03T05:32:04.955Z,47.58
2019-01-03T05:33:04.951Z,47.68
2019-01-03T05:34:04.924Z,47.39
2019-01-03T05:35:04.911Z,47.49
2019-01-03T05:36:04.902Z,47.49
2019-01-03T05:37:04.899Z,47.39
2019-01-03T05:38:04.886Z,47.51
2019-01-03T05:39:04.867Z,47.51
2019-01-03T05:40:04.861Z,47.51
2019-01-03T05:41:05.194Z,47.31
2019-01-03T05:42:04.837Z,47.41
2019-01-03T05:43:04.828Z,47.41
2019-01-03T05:44:04.817Z,47.61
2019-01-03T05:45:04.800Z,47.61
2019-01-03T05:46:04.801Z,47.31
2019-01-03T05:47:04.785Z,47.70
2019-01-03T05:48:04.778Z,47.41
2019-01-03T05:49:04.770Z,47.41
2019-01-03T05:50:04.760Z,47.41
2019-01-03T05:51:04.743Z,47.53
2019-01-03T05:52:04.732Z,47.44
2019-01-03T05:53:04.721Z,47.72
2019-01-03T05:54:04.710Z,47.44
2019-01-03T05:55:04.698Z,47.63
2019-01-03T05:56:04.684Z,47.53
2019-01-03T05:57:04.680Z,47.44
2019-01-03T05:58:04.664Z,47.34
2019-01-03T05:59:04.658Z,47.44
2019-01-03T06:00:04.645Z,47.53
2019-01-03T06:01:04.630Z,47.15
2019-01-03T06:02:04.620Z,47.72
2019-01-03T06:03:04.609Z,47.72
2019-01-03T06:04:04.600Z,47.53
2019-01-03T06:05:04.589Z,47.82
2019-01-03T06:06:04.569Z,47.92
2019-01-03T06:07:04.566Z,47.92
2019-01-03T06:08:04.561Z,48.21
2019-01-03T06:09:04.543Z,48.02
2019-01-03T06:10:04.534Z,48.11
2019-01-03T06:11:04.524Z,48.11
2019-01-03T06:12:04.513Z,48.11
2019-01-03T06:13:04.502Z,48.02
2019-01-03T06:14:04.496Z,47.82
2019-01-03T06:15:04.478Z,48.02
2019-01-03T06:16:04.471Z,47.92
2019-01-03T06:17:04.465Z,48.40
2019-01-03T06:18:04.443Z,47.72
2019-01-03T06:19:04.443Z,47.82
2019-01-03T06:20:04.429Z,48.02
2019-01-03T06:21:04.418Z,47.72
2019-01-03T06:22:04.407Z,47.82
2019-01-03T06:23:04.397Z,47.72
2019-01-03T06:24:04.380Z,48.21
2019-01-03T06:25:04.375Z,48.11
2019-01-03T06:26:04.361Z,48.21
2019-01-03T06:27:04.371Z,48.59
2019-01-03T06:28:04.343Z,48.59
2019-01-03T06:29:04.336Z,48.49
2019-01-03T06:30:04.324Z,48.49
2019-01-03T06:31:04.312Z,48.40
2019-01-03T06:32:04.346Z,48.40
2019-01-03T06:33:04.288Z,48.40
2019-01-03T06:34:04.273Z,48.02
2019-01-03T06:35:04.275Z,48.11
2019-01-03T06:36:04.256Z,48.30
2019-01-03T06:37:04.239Z,48.30
2019-01-03T06:38:04.240Z,48.49
2019-01-03T06:39:04.225Z,48.40
2019-01-03T06:40:04.213Z,48.40
2019-01-03T06:41:04.210Z,48.49
2019-01-03T06:42:04.190Z,48.40
2019-01-03T06:43:04.191Z,48.21
2019-01-03T06:44:04.172Z,48.49
2019-01-03T06:45:04.172Z,48.40
2019-01-03T06:46:04.150Z,48.30
2019-01-03T06:47:04.140Z,48.30
2019-01-03T06:48:04.127Z,48.21
2019-01-03T06:49:04.118Z,48.49
2019-01-03T06:50:04.109Z,48.21
2019-01-03T06:51:04.099Z,48.30
2019-01-03T06:52:04.084Z,48.30
2019-01-03T06:53:04.078Z,48.30
2019-01-03T06:54:04.061Z,48.11
2019-01-03T06:55:04.055Z,48.11
2019-01-03T06:56:04.045Z,48.11
2019-01-03T06:57:04.035Z,48.02
2019-01-03T06:58:04.024Z,48.30
2019-01-03T06:59:04.021Z,48.11
2019-01-03T07:00:04.003Z,48.30
2019-01-03T07:01:03.988Z,48.49
2019-01-03T07:02:03.978Z,48.11
2019-01-03T07:03:03.971Z,48.21
2019-01-03T07:04:03.959Z,48.21
2019-01-03T07:05:03.949Z,48.21
2019-01-03T07:06:03.937Z,48.30
2019-01-03T07:07:03.930Z,48.30
2019-01-03T07:08:03.920Z,48.30
2019-01-03T07:09:03.913Z,48.30
2019-01-03T07:10:03.894Z,48.30
2019-01-03T07:11:03.885Z,48.49
2019-01-03T07:12:03.875Z,48.59
2019-01-03T07:13:03.871Z,48.59
2019-01-03T07:14:03.853Z,48.79
2019-01-03T07:15:03.843Z,48.79
2019-01-03T07:16:03.835Z,48.59
2019-01-03T07:17:03.817Z,48.69
2019-01-03T07:18:03.814Z,48.59
2019-01-03T07:19:03.803Z,48.59
2019-01-03T07:20:03.794Z,48.59
2019-01-03T07:21:03.777Z,48.59
2019-01-03T07:22:03.774Z,48.59
2019-01-03T07:23:03.760Z,48.49
2019-01-03T07:24:03.749Z,48.59
2019-01-03T07:25:03.742Z,48.40
2019-01-03T07:26:03.728Z,48.59
2019-01-03T07:27:03.718Z,48.69
2019-01-03T07:28:03.713Z,48.69
2019-01-03T07:29:03.695Z,49.07
2019-01-03T07:30:03.682Z,49.27
2019-01-03T07:31:03.682Z,49.07
2019-01-03T07:32:03.664Z,49.07
2019-01-03T07:33:03.652Z,49.07
2019-01-03T07:34:03.645Z,48.97
2019-01-03T07:35:03.635Z,49.07
2019-01-03T07:36:03.627Z,49.27
2019-01-03T07:37:03.619Z,48.88
2019-01-03T07:38:03.602Z,48.97
2019-01-03T07:39:03.587Z,49.17
2019-01-03T07:40:03.583Z,48.88
2019-01-03T07:41:03.562Z,48.88
2019-01-03T07:42:03.558Z,49.17
2019-01-03T07:43:03.549Z,49.07
2019-01-03T07:44:03.540Z,49.17
2019-01-03T07:45:03.525Z,49.07
2019-01-03T07:46:03.519Z,49.07
2019-01-03T07:47:03.509Z,49.07
2019-01-03T07:48:03.490Z,49.07
2019-01-03T07:49:03.481Z,49.27
2019-01-03T07:50:03.481Z,49.07
2019-01-03T07:51:03.464Z,49.07
2019-01-03T07:52:03.457Z,49.07
2019-01-03T07:53:03.448Z,49.27
2019-01-03T07:54:03.432Z,49.07
2019-01-03T07:55:03.430Z,48.97
2019-01-03T07:56:03.413Z,49.27
2019-01-03T07:57:03.400Z,48.97
2019-01-03T07:58:03.383Z,49.07
2019-01-03T07:59:03.378Z,49.07
2019-01-03T08:00:03.368Z,48.88
2019-01-03T08:01:03.366Z,48.88
2019-01-03T08:02:03.348Z,48.79
2019-01-03T08:03:03.336Z,48.97
2019-01-03T08:04:03.333Z,48.97
2019-01-03T08:05:03.321Z,48.97
2019-01-03T08:06:03.301Z,48.97
2019-01-03T08:07:03.294Z,48.97
2019-01-03T08:08:03.287Z,48.88
2019-01-03T08:09:03.272Z,48.88
2019-01-03T08:10:03.267Z,48.97
2019-01-03T08:11:03.253Z,49.07
2019-01-03T08:12:03.241Z,49.07
2019-01-03T08:13:03.253Z,48.97
2019-01-03T08:14:03.225Z,48.79
2019-01-03T08:15:03.210Z,48.97
2019-01-03T08:16:03.199Z,48.88
2019-01-03T08:17:03.191Z,48.97
2019-01-03T08:18:03.188Z,48.69
2019-01-03T08:19:03.169Z,48.88
2019-01-03T08:20:03.158Z,48.88
2019-01-03T08:21:03.154Z,48.97
2019-01-03T08:22:03.137Z,48.88
2019-01-03T08:23:03.124Z,48.97
2019-01-03T08:24:03.118Z,49.07
2019-01-03T08:25:03.103Z,48.79
2019-01-03T08:26:03.093Z,49.36
2019-01-03T08:27:03.090Z,49.36
2019-01-03T08:28:03.075Z,48.97
2019-01-03T08:29:03.060Z,49.07
2019-01-03T08:30:03.051Z,48.97
2019-01-03T08:31:03.043Z,48.97
2019-01-03T08:32:03.036Z,48.97
2019-01-03T08:33:03.021Z,49.07
2019-01-03T08:34:03.013Z,49.07
2019-01-03T08:35:02.995Z,49.07
2019-01-03T08:36:02.991Z,48.88
2019-01-03T08:37:02.991Z,48.69
2019-01-03T08:38:02.967Z,48.69
2019-01-03T08:39:02.957Z,48.88
2019-01-03T08:40:02.946Z,48.69
2019-01-03T08:41:02.939Z,48.88
2019-01-03T08:42:02.928Z,48.69
2019-01-03T08:43:02.914Z,48.79
2019-01-03T08:44:02.908Z,48.88
2019-01-03T08:45:02.894Z,48.69
2019-01-03T08:46:02.887Z,48.88
2019-01-03T08:47:02.877Z,48.69
2019-01-03T08:48:02.865Z,48.88
2019-01-03T08:49:02.852Z,48.79
2019-01-03T08:50:02.837Z,48.69
2019-01-03T08:51:02.830Z,48.79
2019-01-03T08:52:02.820Z,48.69
2019-01-03T08:53:02.810Z,48.79
2019-01-03T08:54:02.797Z,48.79
2019-01-03T08:55:02.788Z,48.88
2019-01-03T08:56:02.782Z,48.88
2019-01-03T08:57:02.767Z,49.07
2019-01-03T08:58:02.767Z,49.07
2019-01-03T08:59:02.744Z,49.07
2019-01-03T09:00:02.743Z,48.97
2019-01-03T09:01:02.722Z,48.97
2019-01-03T09:02:02.712Z,49.27
2019-01-03T09:03:02.702Z,49.36
2019-01-03T09:04:02.817Z,49.36
2019-01-03T09:05:03.007Z,49.46
2019-01-03T09:06:02.678Z,49.46
2019-01-03T09:07:03.337Z,49.46
2019-01-03T09:08:02.653Z,49.17
2019-01-03T09:09:02.646Z,49.17
2019-01-03T09:10:02.635Z,48.97
2019-01-03T09:11:02.644Z,49.17
2019-01-03T09:12:02.604Z,48.97
2019-01-03T09:13:02.594Z,49.27
2019-01-03T09:14:02.586Z,49.27
2019-01-03T09:15:02.573Z,48.97
2019-01-03T09:16:02.567Z,49.07
2019-01-03T09:17:02.555Z,49.17
2019-01-03T09:18:02.544Z,49.07
2019-01-03T09:19:02.534Z,48.97
2019-01-03T09:20:02.536Z,49.17
2019-01-03T09:21:02.510Z,48.97
2019-01-03T09:22:02.502Z,48.97
2019-01-03T09:23:02.498Z,49.07
2019-01-03T09:24:02.484Z,48.97
2019-01-03T09:25:02.536Z,49.17
2019-01-03T09:26:02.460Z,49.07
2019-01-03T09:27:02.451Z,49.07
2019-01-03T09:28:02.440Z,49.07
2019-01-03T09:29:02.430Z,49.36
2019-01-03T09:30:02.414Z,49.07
2019-01-03T09:31:02.408Z,48.97
2019-01-03T09:32:02.400Z,48.97
2019-01-03T09:33:02.387Z,49.17
2019-01-03T09:34:02.374Z,49.07
2019-01-03T09:35:02.366Z,49.07
2019-01-03T09:36:02.356Z,49.07
2019-01-03T09:37:02.348Z,48.97
2019-01-03T09:38:02.341Z,49.07
2019-01-03T09:39:02.324Z,48.97
2019-01-03T09:40:02.306Z,48.97
2019-01-03T09:41:02.301Z,49.07
2019-01-03T09:42:02.300Z,49.17
2019-01-03T09:43:02.284Z,49.07
2019-01-03T09:44:02.269Z,49.17
2019-01-03T09:45:02.257Z,49.17
2019-01-03T09:46:02.281Z,49.17
2019-01-03T09:47:02.254Z,49.07
2019-01-03T09:48:02.233Z,49.07
2019-01-03T09:49:02.213Z,49.17
2019-01-03T09:50:02.204Z,48.97
2019-01-03T09:51:02.201Z,49.17
2019-01-03T09:52:02.186Z,49.07
2019-01-03T09:53:02.174Z,48.97
2019-01-03T09:54:02.167Z,49.17
2019-01-03T09:55:02.172Z,48.97
2019-01-03T09:56:02.143Z,48.97
2019-01-03T09:57:02.133Z,49.07
2019-01-03T09:58:02.119Z,48.97
2019-01-03T09:59:02.108Z,49.27
2019-01-03T10:00:02.108Z,49.27
2019-01-03T10:01:02.092Z,48.97
2019-01-03T10:02:02.082Z,48.97
2019-01-03T10:03:02.069Z,49.17
2019-01-03T10:04:02.059Z,49.36
2019-01-03T10:05:02.059Z,49.17
2019-01-03T10:06:02.038Z,49.55
2019-01-03T10:07:02.028Z,49.55
2019-01-03T10:08:02.015Z,49.46
2019-01-03T10:09:02.008Z,49.55
2019-01-03T10:10:01.994Z,49.46
2019-01-03T10:11:01.992Z,49.36
2019-01-03T10:12:01.978Z,49.36
2019-01-03T10:13:01.965Z,49.36
2019-01-03T10:14:01.956Z,49.36
2019-01-03T10:15:01.968Z,49.55
2019-01-03T10:16:01.935Z,49.36
2019-01-03T10:17:01.925Z,49.36
2019-01-03T10:18:01.913Z,49.36
2019-01-03T10:19:01.900Z,49.46
2019-01-03T10:20:01.893Z,49.55
2019-01-03T10:21:01.881Z,49.74
2019-01-03T10:22:01.871Z,49.65
2019-01-03T10:23:01.857Z,49.46
2019-01-03T10:24:01.849Z,49.17
2019-01-03T10:25:01.839Z,49.15
2019-01-03T10:26:01.828Z,49.15
2019-01-03T10:27:01.819Z,48.95
2019-01-03T10:28:01.814Z,49.33
2019-01-03T10:29:01.796Z,48.95
2019-01-03T10:30:01.784Z,48.95
2019-01-03T10:31:01.772Z,48.85
2019-01-03T10:32:01.766Z,48.85
2019-01-03T10:33:01.763Z,48.66
2019-01-03T10:34:01.743Z,48.66
2019-01-03T10:35:01.733Z,48.85
2019-01-03T10:36:01.724Z,48.85
2019-01-03T10:37:01.712Z,48.76
2019-01-03T10:38:01.703Z,48.85
2019-01-03T10:39:01.692Z,48.76
2019-01-03T10:40:01.685Z,48.95
2019-01-03T10:41:01.672Z,49.24
2019-01-03T10:42:01.659Z,48.95
2019-01-03T10:43:01.651Z,48.69
2019-01-03T10:44:01.640Z,48.59
2019-01-03T10:45:01.624Z,48.66
2019-01-03T10:46:01.621Z,48.79
2019-01-03T10:47:01.604Z,48.69
2019-01-03T10:48:01.592Z,48.69
2019-01-03T10:49:01.584Z,48.49
2019-01-03T10:50:01.573Z,48.59
2019-01-03T10:51:01.559Z,48.59
2019-01-03T10:52:01.552Z,48.59
2019-01-03T10:53:01.544Z,48.69
2019-01-03T10:54:01.529Z,48.59
2019-01-03T10:55:01.526Z,48.69
2019-01-03T10:56:01.516Z,48.49
2019-01-03T10:57:01.498Z,48.69
2019-01-03T10:58:01.485Z,48.79
2019-01-03T10:59:01.482Z,48.59
2019-01-03T11:00:01.469Z,48.40
2019-01-03T11:01:01.456Z,48.59
2019-01-03T11:02:01.444Z,48.40
2019-01-03T11:03:01.444Z,48.59
2019-01-03T11:04:01.430Z,48.69
2019-01-03T11:05:01.418Z,48.69
2019-01-03T11:06:01.403Z,48.59
2019-01-03T11:07:01.392Z,48.69
2019-01-03T11:08:01.381Z,48.40
2019-01-03T11:09:01.368Z,48.49
2019-01-03T11:10:01.366Z,48.59
2019-01-03T11:11:02.239Z,48.59
2019-01-03T11:12:01.337Z,48.79
2019-01-03T11:13:01.327Z,48.69
2019-01-03T11:14:01.326Z,49.27
2019-01-03T11:15:01.308Z,49.07
2019-01-03T11:16:01.298Z,49.17
2019-01-03T11:17:01.285Z,49.07
2019-01-03T11:18:01.274Z,49.27
2019-01-03T11:19:01.274Z,48.88
2019-01-03T11:20:01.256Z,48.97
2019-01-03T11:21:01.242Z,48.79
2019-01-03T11:22:01.226Z,48.88
2019-01-03T11:23:01.222Z,48.97
2019-01-03T11:24:01.216Z,48.97
2019-01-03T11:25:01.198Z,48.88
2019-01-03T11:26:01.190Z,48.79
2019-01-03T11:27:01.177Z,48.88
2019-01-03T11:28:01.168Z,48.97
2019-01-03T11:29:01.162Z,48.88
2019-01-03T11:30:01.152Z,48.88
2019-01-03T11:31:02.108Z,48.97
2019-01-03T11:32:01.128Z,48.88
2019-01-03T11:33:01.118Z,48.88
2019-01-03T11:34:01.111Z,48.88
2019-01-03T11:35:01.108Z,48.88
2019-01-03T11:36:01.085Z,49.07
2019-01-03T11:37:01.073Z,48.88
2019-01-03T11:38:01.061Z,48.88
2019-01-03T11:39:01.053Z,48.88
2019-01-03T11:40:01.041Z,49.27
2019-01-03T11:41:01.024Z,49.27
2019-01-03T11:42:01.019Z,49.36
2019-01-03T11:43:01.007Z,49.27
2019-01-03T11:44:00.999Z,49.27
2019-01-03T11:45:00.993Z,49.36
2019-01-03T11:46:00.976Z,49.17
2019-01-03T11:47:00.973Z,49.36
2019-01-03T11:48:00.956Z,49.48
2019-01-03T11:49:00.941Z,49.36
2019-01-03T11:50:00.934Z,49.17
2019-01-03T11:51:00.925Z,49.07
2019-01-03T11:52:00.916Z,49.17
2019-01-03T11:53:00.910Z,49.17
2019-01-03T11:54:00.893Z,49.07
2019-01-03T11:55:00.885Z,48.97
2019-01-03T11:56:00.869Z,49.07
2019-01-03T11:57:00.866Z,49.07
2019-01-03T11:58:00.873Z,48.95
2019-01-03T11:59:00.836Z,49.24
2019-01-03T12:00:00.861Z,49.82
2019-01-03T12:01:00.825Z,49.63
2019-01-03T12:02:00.808Z,49.43
2019-01-03T12:03:00.802Z,49.43
2019-01-03T12:04:00.789Z,49.53
2019-01-03T12:05:00.777Z,49.72
2019-01-03T12:06:00.772Z,49.72
2019-01-03T12:07:00.772Z,49.53
2019-01-03T12:08:00.746Z,49.63
2019-01-03T12:09:00.743Z,49.91
2019-01-03T12:10:00.732Z,49.84
2019-01-03T12:11:00.707Z,49.55
2019-01-03T12:12:00.738Z,49.65
2019-01-03T12:13:00.693Z,49.84
2019-01-03T12:14:00.680Z,49.74
2019-01-03T12:15:00.685Z,49.74
2019-01-03T12:16:00.657Z,49.84
2019-01-03T12:17:00.651Z,49.46
2019-01-03T12:18:00.652Z,49.36
2019-01-03T12:19:00.641Z,49.46
2019-01-03T12:20:00.616Z,49.36
2019-01-03T12:21:00.616Z,49.46
2019-01-03T12:22:00.606Z,49.48
2019-01-03T12:23:00.589Z,49.58
2019-01-03T12:24:00.578Z,49.55
2019-01-03T12:25:00.594Z,49.74
2019-01-03T12:26:00.568Z,49.65
2019-01-03T12:27:00.542Z,49.94
2019-01-03T12:28:00.537Z,49.46
2019-01-03T12:29:00.520Z,49.48
2019-01-03T12:30:00.517Z,49.55
2019-01-03T12:31:00.500Z,49.38
2019-01-03T12:32:00.502Z,49.55
2019-01-03T12:33:00.498Z,49.68
2019-01-03T12:34:00.477Z,49.48
2019-01-03T12:35:00.454Z,49.55
2019-01-03T12:36:00.447Z,49.68
2019-01-03T12:37:00.648Z,49.87
2019-01-03T12:38:00.981Z,49.87
2019-01-03T12:39:00.539Z,49.87
2019-01-03T12:40:00.408Z,49.68
2019-01-03T12:41:00.406Z,49.48
2019-01-03T12:42:00.393Z,49.58
2019-01-03T12:43:00.379Z,49.68
2019-01-03T12:44:00.370Z,49.77
2019-01-03T12:45:00.354Z,49.58
2019-01-03T12:46:00.339Z,49.87
2019-01-03T12:47:00.368Z,49.68
2019-01-03T12:48:00.322Z,49.77
2019-01-03T12:49:00.307Z,49.58
2019-01-03T12:50:00.313Z,49.58
2019-01-03T12:51:00.299Z,49.68
2019-01-03T12:52:00.288Z,50.06